sensor_id;sensor_type;location;lat;lon;timestamp;temperature;humidity
8475;DHT22;4274;52.012;8.448;2023-03-03T00:00:56;1.10;99.90
8475;DHT22;4274;52.012;8.448;2023-03-03T00:03:23;1.10;99.90
8475;DHT22;4274;52.012;8.448;2023-03-03T00:05:50;1.10;99.90
8475;DHT22;4274;52.012;8.448;2023-03-03T00:08:16;1.10;99.90
8475;DHT22;4274;52.012;8.448;2023-03-03T00:10:41;1.10;99.90
8475;DHT22;4274;52.012;8.448;2023-03-03T00:13:19;1.10;99.90
8475;DHT22;4274;52.012;8.448;2023-03-03T00:15:45;1.10;99.90
8475;DHT22;4274;52.012;8.448;2023-03-03T00:18:21;1.10;99.90
8475;DHT22;4274;52.012;8.448;2023-03-03T00:20:55;1.00;99.90
8475;DHT22;4274;52.012;8.448;2023-03-03T00:23:38;1.10;99.90
8475;DHT22;4274;52.012;8.448;2023-03-03T00:28:49;1.10;99.90
8475;DHT22;4274;52.012;8.448;2023-03-03T00:31:19;1.10;99.90
8475;DHT22;4274;52.012;8.448;2023-03-03T00:33:53;1.10;99.90
8475;DHT22;4274;52.012;8.448;2023-03-03T00:36:35;1.10;99.90
8475;DHT22;4274;52.012;8.448;2023-03-03T00:39:28;1.00;99.90
8475;DHT22;4274;52.012;8.448;2023-03-03T00:41:54;0.90;99.90
8475;DHT22;4274;52.012;8.448;2023-03-03T00:44:35;0.90;99.90
8475;DHT22;4274;52.012;8.448;2023-03-03T00:47:29;0.90;99.90
8475;DHT22;4274;52.012;8.448;2023-03-03T00:50:26;0.90;99.90
8475;DHT22;4274;52.012;8.448;2023-03-03T00:53:01;0.90;99.90
8475;DHT22;4274;52.012;8.448;2023-03-03T00:55:28;0.80;99.90
8475;DHT22;4274;52.012;8.448;2023-03-03T00:57:54;0.80;99.90
8475;DHT22;4274;52.012;8.448;2023-03-03T01:00:19;0.80;99.90
8475;DHT22;4274;52.012;8.448;2023-03-03T01:02:45;0.80;99.90
8475;DHT22;4274;52.012;8.448;2023-03-03T01:05:14;0.80;99.90
8475;DHT22;4274;52.012;8.448;2023-03-03T01:07:40;0.90;99.90
8475;DHT22;4274;52.012;8.448;2023-03-03T01:10:06;0.90;99.90
8475;DHT22;4274;52.012;8.448;2023-03-03T01:12:32;1.00;99.90
8475;DHT22;4274;52.012;8.448;2023-03-03T01:14:58;0.90;99.90
8475;DHT22;4274;52.012;8.448;2023-03-03T01:17:24;1.00;99.90
8475;DHT22;4274;52.012;8.448;2023-03-03T01:19:49;1.00;99.90
8475;DHT22;4274;52.012;8.448;2023-03-03T01:22:15;1.00;99.90
8475;DHT22;4274;52.012;8.448;2023-03-03T01:24:40;1.10;99.90
8475;DHT22;4274;52.012;8.448;2023-03-03T01:27:06;1.00;99.90
8475;DHT22;4274;52.012;8.448;2023-03-03T01:29:32;1.10;99.90
8475;DHT22;4274;52.012;8.448;2023-03-03T01:31:57;1.00;99.90
8475;DHT22;4274;52.012;8.448;2023-03-03T01:34:23;1.00;99.90
8475;DHT22;4274;52.012;8.448;2023-03-03T01:36:49;1.10;99.90
8475;DHT22;4274;52.012;8.448;2023-03-03T01:39:15;1.10;99.90
8475;DHT22;4274;52.012;8.448;2023-03-03T01:41:40;1.10;99.90
8475;DHT22;4274;52.012;8.448;2023-03-03T01:44:08;1.10;99.90
8475;DHT22;4274;52.012;8.448;2023-03-03T01:47:06;1.10;99.90
8475;DHT22;4274;52.012;8.448;2023-03-03T01:49:55;1.10;99.90
8475;DHT22;4274;52.012;8.448;2023-03-03T01:52:32;1.10;99.90
8475;DHT22;4274;52.012;8.448;2023-03-03T01:55:02;1.10;99.90
8475;DHT22;4274;52.012;8.448;2023-03-03T01:57:32;1.10;99.90
8475;DHT22;4274;52.012;8.448;2023-03-03T02:00:01;1.10;99.90
8475;DHT22;4274;52.012;8.448;2023-03-03T02:02:27;1.10;99.90
8475;DHT22;4274;52.012;8.448;2023-03-03T02:04:53;1.10;99.90
8475;DHT22;4274;52.012;8.448;2023-03-03T02:07:20;1.10;99.90
8475;DHT22;4274;52.012;8.448;2023-03-03T02:09:58;1.00;99.90
8475;DHT22;4274;52.012;8.448;2023-03-03T02:12:41;1.00;99.90
8475;DHT22;4274;52.012;8.448;2023-03-03T02:15:18;1.00;99.90
8475;DHT22;4274;52.012;8.448;2023-03-03T02:17:45;1.00;99.90
8475;DHT22;4274;52.012;8.448;2023-03-03T02:22:57;1.00;99.90
8475;DHT22;4274;52.012;8.448;2023-03-03T02:25:45;0.90;99.90
8475;DHT22;4274;52.012;8.448;2023-03-03T02:28:12;0.90;99.90
8475;DHT22;4274;52.012;8.448;2023-03-03T02:30:39;0.80;99.90
8475;DHT22;4274;52.012;8.448;2023-03-03T02:33:05;0.90;99.90
8475;DHT22;4274;52.012;8.448;2023-03-03T02:41:06;0.90;99.90
8475;DHT22;4274;52.012;8.448;2023-03-03T02:43:58;0.90;99.90
8475;DHT22;4274;52.012;8.448;2023-03-03T02:46:24;0.90;99.90
8475;DHT22;4274;52.012;8.448;2023-03-03T02:48:50;0.90;99.90
8475;DHT22;4274;52.012;8.448;2023-03-03T02:51:15;0.90;99.90
8475;DHT22;4274;52.012;8.448;2023-03-03T02:53:42;0.90;99.90
8475;DHT22;4274;52.012;8.448;2023-03-03T02:56:08;0.90;99.90
8475;DHT22;4274;52.012;8.448;2023-03-03T02:58:37;0.90;99.90
8475;DHT22;4274;52.012;8.448;2023-03-03T03:01:03;0.90;99.90
8475;DHT22;4274;52.012;8.448;2023-03-03T03:03:29;0.90;99.90
8475;DHT22;4274;52.012;8.448;2023-03-03T03:05:55;0.80;99.90
8475;DHT22;4274;52.012;8.448;2023-03-03T03:08:21;0.80;99.90
8475;DHT22;4274;52.012;8.448;2023-03-03T03:10:47;0.80;99.90
8475;DHT22;4274;52.012;8.448;2023-03-03T03:13:12;0.80;99.90
8475;DHT22;4274;52.012;8.448;2023-03-03T03:15:38;0.80;99.90
8475;DHT22;4274;52.012;8.448;2023-03-03T03:18:03;0.70;99.90
8475;DHT22;4274;52.012;8.448;2023-03-03T03:20:29;0.70;99.90
8475;DHT22;4274;52.012;8.448;2023-03-03T03:22:55;0.70;99.90
8475;DHT22;4274;52.012;8.448;2023-03-03T03:25:20;0.60;99.90
8475;DHT22;4274;52.012;8.448;2023-03-03T03:27:46;0.70;99.90
8475;DHT22;4274;52.012;8.448;2023-03-03T03:30:12;0.70;99.90
8475;DHT22;4274;52.012;8.448;2023-03-03T03:32:38;0.70;99.90
8475;DHT22;4274;52.012;8.448;2023-03-03T03:35:03;0.80;99.90
8475;DHT22;4274;52.012;8.448;2023-03-03T03:37:29;0.80;99.90
8475;DHT22;4274;52.012;8.448;2023-03-03T03:39:55;0.80;99.90
8475;DHT22;4274;52.012;8.448;2023-03-03T03:42:20;0.80;99.90
8475;DHT22;4274;52.012;8.448;2023-03-03T03:44:46;0.80;99.90
8475;DHT22;4274;52.012;8.448;2023-03-03T03:47:12;0.80;99.90
8475;DHT22;4274;52.012;8.448;2023-03-03T03:49:37;0.80;99.90
8475;DHT22;4274;52.012;8.448;2023-03-03T03:52:03;0.80;99.90
8475;DHT22;4274;52.012;8.448;2023-03-03T03:54:29;0.70;99.90
8475;DHT22;4274;52.012;8.448;2023-03-03T03:56:54;0.70;99.90
8475;DHT22;4274;52.012;8.448;2023-03-03T03:59:20;0.70;99.90
8475;DHT22;4274;52.012;8.448;2023-03-03T04:01:46;0.70;99.90
8475;DHT22;4274;52.012;8.448;2023-03-03T04:04:12;0.70;99.90
8475;DHT22;4274;52.012;8.448;2023-03-03T04:06:38;0.70;99.90
8475;DHT22;4274;52.012;8.448;2023-03-03T04:09:04;0.70;99.90
8475;DHT22;4274;52.012;8.448;2023-03-03T04:11:29;0.70;99.90
8475;DHT22;4274;52.012;8.448;2023-03-03T04:13:55;0.70;99.90
8475;DHT22;4274;52.012;8.448;2023-03-03T04:16:20;0.70;99.90
8475;DHT22;4274;52.012;8.448;2023-03-03T04:18:46;0.70;99.90
8475;DHT22;4274;52.012;8.448;2023-03-03T04:21:15;0.70;99.90
8475;DHT22;4274;52.012;8.448;2023-03-03T04:23:41;0.70;99.90
8475;DHT22;4274;52.012;8.448;2023-03-03T04:26:07;0.70;99.90
8475;DHT22;4274;52.012;8.448;2023-03-03T04:28:33;0.70;99.90
8475;DHT22;4274;52.012;8.448;2023-03-03T04:30:58;0.70;99.90
8475;DHT22;4274;52.012;8.448;2023-03-03T04:33:25;0.70;99.90
8475;DHT22;4274;52.012;8.448;2023-03-03T04:35:50;0.60;99.90
8475;DHT22;4274;52.012;8.448;2023-03-03T04:38:16;0.60;99.90
8475;DHT22;4274;52.012;8.448;2023-03-03T04:40:42;0.60;99.90
8475;DHT22;4274;52.012;8.448;2023-03-03T04:43:08;0.60;99.90
8475;DHT22;4274;52.012;8.448;2023-03-03T04:45:34;0.60;99.90
8475;DHT22;4274;52.012;8.448;2023-03-03T04:48:00;0.60;99.90
8475;DHT22;4274;52.012;8.448;2023-03-03T04:50:26;0.60;99.90
8475;DHT22;4274;52.012;8.448;2023-03-03T04:52:51;0.60;99.90
8475;DHT22;4274;52.012;8.448;2023-03-03T04:55:17;0.70;99.90
8475;DHT22;4274;52.012;8.448;2023-03-03T04:57:43;0.70;99.90
8475;DHT22;4274;52.012;8.448;2023-03-03T05:00:10;0.70;99.90
8475;DHT22;4274;52.012;8.448;2023-03-03T05:02:38;0.60;99.90
8475;DHT22;4274;52.012;8.448;2023-03-03T05:05:04;0.60;99.90
8475;DHT22;4274;52.012;8.448;2023-03-03T05:07:30;0.60;99.90
8475;DHT22;4274;52.012;8.448;2023-03-03T05:09:56;0.60;99.90
8475;DHT22;4274;52.012;8.448;2023-03-03T05:12:21;0.60;99.90
8475;DHT22;4274;52.012;8.448;2023-03-03T05:14:47;0.60;99.90
8475;DHT22;4274;52.012;8.448;2023-03-03T05:17:13;0.60;99.90
8475;DHT22;4274;52.012;8.448;2023-03-03T05:19:39;0.50;99.90
8475;DHT22;4274;52.012;8.448;2023-03-03T05:22:05;0.50;99.90
8475;DHT22;4274;52.012;8.448;2023-03-03T05:24:30;0.50;99.90
8475;DHT22;4274;52.012;8.448;2023-03-03T05:26:56;0.50;99.90
8475;DHT22;4274;52.012;8.448;2023-03-03T05:29:22;0.50;99.90
8475;DHT22;4274;52.012;8.448;2023-03-03T05:31:47;0.50;99.90
8475;DHT22;4274;52.012;8.448;2023-03-03T05:34:13;0.40;99.90
8475;DHT22;4274;52.012;8.448;2023-03-03T05:36:39;0.50;99.90
8475;DHT22;4274;52.012;8.448;2023-03-03T05:39:05;0.40;99.90
8475;DHT22;4274;52.012;8.448;2023-03-03T05:41:31;0.40;99.90
8475;DHT22;4274;52.012;8.448;2023-03-03T05:43:56;0.40;99.90
8475;DHT22;4274;52.012;8.448;2023-03-03T05:46:22;0.40;99.90
8475;DHT22;4274;52.012;8.448;2023-03-03T05:48:47;0.40;99.90
8475;DHT22;4274;52.012;8.448;2023-03-03T05:51:13;0.40;99.90
8475;DHT22;4274;52.012;8.448;2023-03-03T05:53:39;0.30;99.90
8475;DHT22;4274;52.012;8.448;2023-03-03T05:56:05;0.30;99.90
8475;DHT22;4274;52.012;8.448;2023-03-03T05:58:30;0.30;99.90
8475;DHT22;4274;52.012;8.448;2023-03-03T06:00:56;0.20;99.90
8475;DHT22;4274;52.012;8.448;2023-03-03T06:03:22;0.30;99.90
8475;DHT22;4274;52.012;8.448;2023-03-03T06:05:47;0.30;99.90
8475;DHT22;4274;52.012;8.448;2023-03-03T06:08:13;0.30;99.90
8475;DHT22;4274;52.012;8.448;2023-03-03T06:10:39;0.30;99.90
8475;DHT22;4274;52.012;8.448;2023-03-03T06:13:04;0.30;99.90
8475;DHT22;4274;52.012;8.448;2023-03-03T06:15:30;0.30;99.90
8475;DHT22;4274;52.012;8.448;2023-03-03T06:17:55;0.30;99.90
8475;DHT22;4274;52.012;8.448;2023-03-03T06:20:21;0.30;99.90
8475;DHT22;4274;52.012;8.448;2023-03-03T06:22:47;0.30;99.90
8475;DHT22;4274;52.012;8.448;2023-03-03T06:25:12;0.20;99.90
8475;DHT22;4274;52.012;8.448;2023-03-03T06:27:38;0.20;99.90
8475;DHT22;4274;52.012;8.448;2023-03-03T06:30:04;0.20;99.90
8475;DHT22;4274;52.012;8.448;2023-03-03T06:32:30;0.20;99.90
8475;DHT22;4274;52.012;8.448;2023-03-03T06:34:55;0.30;99.90
8475;DHT22;4274;52.012;8.448;2023-03-03T06:37:21;0.30;99.90
8475;DHT22;4274;52.012;8.448;2023-03-03T06:39:46;0.20;99.90
8475;DHT22;4274;52.012;8.448;2023-03-03T06:42:12;0.30;99.90
8475;DHT22;4274;52.012;8.448;2023-03-03T06:44:38;0.30;99.90
8475;DHT22;4274;52.012;8.448;2023-03-03T06:47:03;0.30;99.90
8475;DHT22;4274;52.012;8.448;2023-03-03T06:49:30;0.30;99.90
8475;DHT22;4274;52.012;8.448;2023-03-03T06:51:58;0.40;99.90
8475;DHT22;4274;52.012;8.448;2023-03-03T06:54:28;0.40;99.90
8475;DHT22;4274;52.012;8.448;2023-03-03T06:56:58;0.40;99.90
8475;DHT22;4274;52.012;8.448;2023-03-03T06:59:26;0.40;99.90
8475;DHT22;4274;52.012;8.448;2023-03-03T07:01:51;0.50;99.90
8475;DHT22;4274;52.012;8.448;2023-03-03T07:04:30;0.50;99.90
8475;DHT22;4274;52.012;8.448;2023-03-03T07:09:44;0.50;99.90
8475;DHT22;4274;52.012;8.448;2023-03-03T07:12:18;0.50;99.90
8475;DHT22;4274;52.012;8.448;2023-03-03T07:14:49;0.50;99.90
8475;DHT22;4274;52.012;8.448;2023-03-03T07:17:21;0.50;99.90
8475;DHT22;4274;52.012;8.448;2023-03-03T07:19:47;0.50;99.90
8475;DHT22;4274;52.012;8.448;2023-03-03T07:22:18;0.50;99.90
8475;DHT22;4274;52.012;8.448;2023-03-03T07:24:47;0.50;99.90
8475;DHT22;4274;52.012;8.448;2023-03-03T07:29:48;0.40;99.90
8475;DHT22;4274;52.012;8.448;2023-03-03T07:32:39;0.50;99.90
8475;DHT22;4274;52.012;8.448;2023-03-03T07:35:39;0.50;99.90
8475;DHT22;4274;52.012;8.448;2023-03-03T07:40:54;0.60;99.90
8475;DHT22;4274;52.012;8.448;2023-03-03T07:43:25;0.60;99.90
8475;DHT22;4274;52.012;8.448;2023-03-03T07:45:57;0.60;99.90
8475;DHT22;4274;52.012;8.448;2023-03-03T07:48:30;0.60;99.90
8475;DHT22;4274;52.012;8.448;2023-03-03T07:51:03;0.70;99.90
8475;DHT22;4274;52.012;8.448;2023-03-03T07:53:31;0.70;99.90
8475;DHT22;4274;52.012;8.448;2023-03-03T07:55:59;0.70;99.90
8475;DHT22;4274;52.012;8.448;2023-03-03T07:58:39;0.70;99.90
8475;DHT22;4274;52.012;8.448;2023-03-03T08:03:53;0.80;99.90
8475;DHT22;4274;52.012;8.448;2023-03-03T08:09:24;0.80;99.90
8475;DHT22;4274;52.012;8.448;2023-03-03T08:14:15;1.00;99.90
8475;DHT22;4274;52.012;8.448;2023-03-03T08:16:42;0.90;99.90
8475;DHT22;4274;52.012;8.448;2023-03-03T08:19:11;1.00;99.90
8475;DHT22;4274;52.012;8.448;2023-03-03T08:21:38;1.10;99.90
8475;DHT22;4274;52.012;8.448;2023-03-03T08:24:03;1.10;99.90
8475;DHT22;4274;52.012;8.448;2023-03-03T08:26:29;1.20;99.90
8475;DHT22;4274;52.012;8.448;2023-03-03T08:28:55;1.20;99.90
8475;DHT22;4274;52.012;8.448;2023-03-03T08:31:21;1.20;99.90
8475;DHT22;4274;52.012;8.448;2023-03-03T08:33:46;1.20;99.90
8475;DHT22;4274;52.012;8.448;2023-03-03T08:36:12;1.30;99.90
8475;DHT22;4274;52.012;8.448;2023-03-03T08:38:39;1.30;99.90
8475;DHT22;4274;52.012;8.448;2023-03-03T08:41:05;1.40;99.90
8475;DHT22;4274;52.012;8.448;2023-03-03T08:43:31;1.40;99.90
8475;DHT22;4274;52.012;8.448;2023-03-03T08:45:59;1.40;99.90
8475;DHT22;4274;52.012;8.448;2023-03-03T08:48:26;1.50;99.90
8475;DHT22;4274;52.012;8.448;2023-03-03T08:50:52;1.50;99.90
8475;DHT22;4274;52.012;8.448;2023-03-03T08:53:20;1.50;99.90
8475;DHT22;4274;52.012;8.448;2023-03-03T08:55:46;1.60;99.90
8475;DHT22;4274;52.012;8.448;2023-03-03T08:58:13;1.70;99.90
8475;DHT22;4274;52.012;8.448;2023-03-03T09:00:39;1.70;99.90
8475;DHT22;4274;52.012;8.448;2023-03-03T09:03:05;1.80;99.90
8475;DHT22;4274;52.012;8.448;2023-03-03T09:05:32;1.90;99.90
8475;DHT22;4274;52.012;8.448;2023-03-03T09:07:58;1.90;99.90
8475;DHT22;4274;52.012;8.448;2023-03-03T09:10:26;2.00;99.90
8475;DHT22;4274;52.012;8.448;2023-03-03T09:12:56;2.00;99.90
8475;DHT22;4274;52.012;8.448;2023-03-03T09:15:28;2.10;99.90
8475;DHT22;4274;52.012;8.448;2023-03-03T09:18:30;2.30;99.90
8475;DHT22;4274;52.012;8.448;2023-03-03T09:20:56;2.30;99.90
8475;DHT22;4274;52.012;8.448;2023-03-03T09:26:14;2.50;99.90
8475;DHT22;4274;52.012;8.448;2023-03-03T09:28:43;2.60;99.90
8475;DHT22;4274;52.012;8.448;2023-03-03T09:33:48;2.70;99.90
8475;DHT22;4274;52.012;8.448;2023-03-03T09:38:50;2.80;99.90
8475;DHT22;4274;52.012;8.448;2023-03-03T09:41:39;2.90;99.90
8475;DHT22;4274;52.012;8.448;2023-03-03T09:50:11;3.20;99.90
8475;DHT22;4274;52.012;8.448;2023-03-03T10:09:41;3.70;99.90
8475;DHT22;4274;52.012;8.448;2023-03-03T10:12:27;3.80;99.90
8475;DHT22;4274;52.012;8.448;2023-03-03T10:17:48;3.90;99.90
8475;DHT22;4274;52.012;8.448;2023-03-03T10:20:27;3.90;99.90
8475;DHT22;4274;52.012;8.448;2023-03-03T10:23:00;4.00;99.90
8475;DHT22;4274;52.012;8.448;2023-03-03T10:25:41;4.00;99.90
8475;DHT22;4274;52.012;8.448;2023-03-03T10:31:13;4.20;99.90
8475;DHT22;4274;52.012;8.448;2023-03-03T10:36:52;4.40;99.90
8475;DHT22;4274;52.012;8.448;2023-03-03T10:42:12;4.30;99.90
8475;DHT22;4274;52.012;8.448;2023-03-03T10:44:47;4.30;99.90
8475;DHT22;4274;52.012;8.448;2023-03-03T10:50:16;4.50;99.90
8475;DHT22;4274;52.012;8.448;2023-03-03T11:03:49;4.80;99.90
8475;DHT22;4274;52.012;8.448;2023-03-03T11:06:21;5.30;99.90
8475;DHT22;4274;52.012;8.448;2023-03-03T11:09:08;5.80;99.90
8475;DHT22;4274;52.012;8.448;2023-03-03T11:14:43;6.00;99.90
8475;DHT22;4274;52.012;8.448;2023-03-03T11:17:15;6.00;99.90
8475;DHT22;4274;52.012;8.448;2023-03-03T11:22:29;6.00;99.90
8475;DHT22;4274;52.012;8.448;2023-03-03T11:25:10;6.20;99.90
8475;DHT22;4274;52.012;8.448;2023-03-03T11:30:48;6.10;99.90
8475;DHT22;4274;52.012;8.448;2023-03-03T11:33:29;5.90;99.90
8475;DHT22;4274;52.012;8.448;2023-03-03T11:41:29;5.60;99.90
8475;DHT22;4274;52.012;8.448;2023-03-03T11:44:10;5.50;99.90
8475;DHT22;4274;52.012;8.448;2023-03-03T11:46:50;5.40;99.90
8475;DHT22;4274;52.012;8.448;2023-03-03T11:55:34;6.00;99.90
8475;DHT22;4274;52.012;8.448;2023-03-03T12:03:38;6.30;99.90
8475;DHT22;4274;52.012;8.448;2023-03-03T12:06:13;6.30;99.90
8475;DHT22;4274;52.012;8.448;2023-03-03T12:12:14;6.50;99.90
8475;DHT22;4274;52.012;8.448;2023-03-03T12:20:23;6.60;99.90
8475;DHT22;4274;52.012;8.448;2023-03-03T12:28:13;6.90;99.90
8475;DHT22;4274;52.012;8.448;2023-03-03T12:34:21;7.40;99.90
8475;DHT22;4274;52.012;8.448;2023-03-03T12:37:13;7.90;99.90
8475;DHT22;4274;52.012;8.448;2023-03-03T12:48:15;9.70;99.90
8475;DHT22;4274;52.012;8.448;2023-03-03T12:50:56;10.00;99.90
8475;DHT22;4274;52.012;8.448;2023-03-03T12:54:06;10.30;99.90
8475;DHT22;4274;52.012;8.448;2023-03-03T12:56:59;10.50;99.90
8475;DHT22;4274;52.012;8.448;2023-03-03T13:07:45;11.40;99.90
8475;DHT22;4274;52.012;8.448;2023-03-03T13:12:56;12.20;99.90
8475;DHT22;4274;52.012;8.448;2023-03-03T13:15:29;12.50;99.90
8475;DHT22;4274;52.012;8.448;2023-03-03T13:20:44;11.70;99.90
8475;DHT22;4274;52.012;8.448;2023-03-03T13:26:21;12.60;99.90
8475;DHT22;4274;52.012;8.448;2023-03-03T13:29:03;12.70;99.90
8475;DHT22;4274;52.012;8.448;2023-03-03T13:31:36;12.60;99.90
8475;DHT22;4274;52.012;8.448;2023-03-03T13:34:03;12.00;99.90
8475;DHT22;4274;52.012;8.448;2023-03-03T13:36:35;11.30;99.90
8475;DHT22;4274;52.012;8.448;2023-03-03T13:39:29;11.00;99.90
8475;DHT22;4274;52.012;8.448;2023-03-03T13:42:13;10.70;99.90
8475;DHT22;4274;52.012;8.448;2023-03-03T13:44:43;10.80;99.90
8475;DHT22;4274;52.012;8.448;2023-03-03T13:47:35;11.10;99.90
8475;DHT22;4274;52.012;8.448;2023-03-03T13:53:13;11.70;99.90
8475;DHT22;4274;52.012;8.448;2023-03-03T14:01:22;11.70;99.90
8475;DHT22;4274;52.012;8.448;2023-03-03T14:04:09;11.50;99.90
8475;DHT22;4274;52.012;8.448;2023-03-03T14:06:39;11.30;99.90
8475;DHT22;4274;52.012;8.448;2023-03-03T14:09:25;11.40;99.90
8475;DHT22;4274;52.012;8.448;2023-03-03T14:15:03;12.00;99.90
8475;DHT22;4274;52.012;8.448;2023-03-03T14:17:36;12.00;99.90
8475;DHT22;4274;52.012;8.448;2023-03-03T14:20:11;12.10;99.90
8475;DHT22;4274;52.012;8.448;2023-03-03T14:26:07;12.10;99.90
8475;DHT22;4274;52.012;8.448;2023-03-03T14:28:44;11.50;99.90
8475;DHT22;4274;52.012;8.448;2023-03-03T14:31:39;10.60;99.90
8475;DHT22;4274;52.012;8.448;2023-03-03T14:36:38;9.40;99.90
8475;DHT22;4274;52.012;8.448;2023-03-03T14:39:36;9.10;99.90
8475;DHT22;4274;52.012;8.448;2023-03-03T14:42:29;8.80;99.90
8475;DHT22;4274;52.012;8.448;2023-03-03T14:44:55;8.50;99.90
8475;DHT22;4274;52.012;8.448;2023-03-03T14:47:25;8.20;99.90
8475;DHT22;4274;52.012;8.448;2023-03-03T14:49:55;7.90;99.90
8475;DHT22;4274;52.012;8.448;2023-03-03T14:52:32;7.70;99.90
8475;DHT22;4274;52.012;8.448;2023-03-03T14:55:00;7.60;99.90
8475;DHT22;4274;52.012;8.448;2023-03-03T15:05:26;6.90;99.90
8475;DHT22;4274;52.012;8.448;2023-03-03T15:08:08;6.70;99.90
8475;DHT22;4274;52.012;8.448;2023-03-03T15:10:42;6.60;99.90
8475;DHT22;4274;52.012;8.448;2023-03-03T15:16:02;6.30;99.90
8475;DHT22;4274;52.012;8.448;2023-03-03T15:18:30;6.20;99.90
8475;DHT22;4274;52.012;8.448;2023-03-03T15:21:06;6.10;99.90
8475;DHT22;4274;52.012;8.448;2023-03-03T15:26:23;5.90;99.90
8475;DHT22;4274;52.012;8.448;2023-03-03T15:35:16;5.80;99.90
8475;DHT22;4274;52.012;8.448;2023-03-03T15:38:01;5.60;99.90
8475;DHT22;4274;52.012;8.448;2023-03-03T15:40:28;5.50;99.90
8475;DHT22;4274;52.012;8.448;2023-03-03T15:51:16;5.30;99.90
8475;DHT22;4274;52.012;8.448;2023-03-03T15:54:11;5.30;99.90
8475;DHT22;4274;52.012;8.448;2023-03-03T15:56:56;5.20;99.90
8475;DHT22;4274;52.012;8.448;2023-03-03T15:59:44;5.10;99.90
8475;DHT22;4274;52.012;8.448;2023-03-03T16:02:24;5.00;99.90
8475;DHT22;4274;52.012;8.448;2023-03-03T16:04:54;4.90;99.90
8475;DHT22;4274;52.012;8.448;2023-03-03T16:10:21;4.70;99.90
8475;DHT22;4274;52.012;8.448;2023-03-03T16:15:41;4.60;99.90
8475;DHT22;4274;52.012;8.448;2023-03-03T16:23:47;4.40;99.90
8475;DHT22;4274;52.012;8.448;2023-03-03T16:29:32;4.40;99.90
8475;DHT22;4274;52.012;8.448;2023-03-03T16:32:20;4.30;99.90
8475;DHT22;4274;52.012;8.448;2023-03-03T16:34:59;4.30;99.90
8475;DHT22;4274;52.012;8.448;2023-03-03T16:40:13;4.20;99.90
8475;DHT22;4274;52.012;8.448;2023-03-03T16:42:43;4.10;99.90
8475;DHT22;4274;52.012;8.448;2023-03-03T16:45:25;4.10;99.90
8475;DHT22;4274;52.012;8.448;2023-03-03T16:53:09;3.90;99.90
8475;DHT22;4274;52.012;8.448;2023-03-03T17:01:16;3.70;99.90
8475;DHT22;4274;52.012;8.448;2023-03-03T17:04:05;3.70;99.90
8475;DHT22;4274;52.012;8.448;2023-03-03T17:17:35;3.20;99.90
8475;DHT22;4274;52.012;8.448;2023-03-03T17:41:37;2.20;99.90
8475;DHT22;4274;52.012;8.448;2023-03-03T17:44:15;2.10;99.90
8475;DHT22;4274;52.012;8.448;2023-03-03T17:47:01;2.00;99.90
8475;DHT22;4274;52.012;8.448;2023-03-03T17:52:36;1.90;99.90
8475;DHT22;4274;52.012;8.448;2023-03-03T17:55:18;1.90;99.90
8475;DHT22;4274;52.012;8.448;2023-03-03T18:01:06;2.00;99.90
8475;DHT22;4274;52.012;8.448;2023-03-03T18:12:27;2.20;99.90
8475;DHT22;4274;52.012;8.448;2023-03-03T18:22:49;2.40;99.90
8475;DHT22;4274;52.012;8.448;2023-03-03T18:25:50;2.40;99.90
8475;DHT22;4274;52.012;8.448;2023-03-03T18:28:21;2.40;99.90
8475;DHT22;4274;52.012;8.448;2023-03-03T18:31:01;2.50;99.90
8475;DHT22;4274;52.012;8.448;2023-03-03T18:38:57;2.60;99.90
8475;DHT22;4274;52.012;8.448;2023-03-03T18:41:27;2.60;99.90
8475;DHT22;4274;52.012;8.448;2023-03-03T18:44:01;2.70;99.90
8475;DHT22;4274;52.012;8.448;2023-03-03T18:46:48;2.70;99.90
8475;DHT22;4274;52.012;8.448;2023-03-03T18:49:14;2.80;99.90
8475;DHT22;4274;52.012;8.448;2023-03-03T19:04:40;3.00;99.90
8475;DHT22;4274;52.012;8.448;2023-03-03T19:07:23;3.00;99.90
8475;DHT22;4274;52.012;8.448;2023-03-03T19:09:59;3.00;99.90
8475;DHT22;4274;52.012;8.448;2023-03-03T19:20:44;3.10;99.90
8475;DHT22;4274;52.012;8.448;2023-03-03T19:23:14;3.20;99.90
8475;DHT22;4274;52.012;8.448;2023-03-03T19:25:40;3.20;99.90
8475;DHT22;4274;52.012;8.448;2023-03-03T19:31:03;3.20;99.90
8475;DHT22;4274;52.012;8.448;2023-03-03T19:33:56;3.30;99.90
8475;DHT22;4274;52.012;8.448;2023-03-03T19:36:38;3.20;99.90
8475;DHT22;4274;52.012;8.448;2023-03-03T19:42:01;3.20;99.90
8475;DHT22;4274;52.012;8.448;2023-03-03T19:47:04;3.20;99.90
8475;DHT22;4274;52.012;8.448;2023-03-03T19:52:45;3.20;99.90
8475;DHT22;4274;52.012;8.448;2023-03-03T20:01:00;3.30;99.90
8475;DHT22;4274;52.012;8.448;2023-03-03T20:06:35;3.30;99.90
8475;DHT22;4274;52.012;8.448;2023-03-03T20:09:02;3.30;99.90
8475;DHT22;4274;52.012;8.448;2023-03-03T20:14:43;3.30;99.90
8475;DHT22;4274;52.012;8.448;2023-03-03T20:20:01;3.30;99.90
8475;DHT22;4274;52.012;8.448;2023-03-03T20:28:39;3.20;99.90
8475;DHT22;4274;52.012;8.448;2023-03-03T20:53:30;3.20;99.90
8475;DHT22;4274;52.012;8.448;2023-03-03T21:01:13;3.10;99.90
8475;DHT22;4274;52.012;8.448;2023-03-03T21:03:42;3.10;99.90
8475;DHT22;4274;52.012;8.448;2023-03-03T21:06:17;3.10;99.90
8475;DHT22;4274;52.012;8.448;2023-03-03T21:11:16;3.10;99.90
8475;DHT22;4274;52.012;8.448;2023-03-03T21:13:46;3.10;99.90
8475;DHT22;4274;52.012;8.448;2023-03-03T21:21:30;3.10;99.90
8475;DHT22;4274;52.012;8.448;2023-03-03T21:23:56;3.10;99.90
8475;DHT22;4274;52.012;8.448;2023-03-03T21:26:43;3.10;99.90
8475;DHT22;4274;52.012;8.448;2023-03-03T21:29:24;3.10;99.90
8475;DHT22;4274;52.012;8.448;2023-03-03T21:31:56;3.10;99.90
8475;DHT22;4274;52.012;8.448;2023-03-03T21:34:25;3.10;99.90
8475;DHT22;4274;52.012;8.448;2023-03-03T21:36:52;3.10;99.90
8475;DHT22;4274;52.012;8.448;2023-03-03T21:42:10;3.20;99.90
8475;DHT22;4274;52.012;8.448;2023-03-03T21:44:47;3.20;99.90
8475;DHT22;4274;52.012;8.448;2023-03-03T21:47:21;3.20;99.90
8475;DHT22;4274;52.012;8.448;2023-03-03T21:49:49;3.30;99.90
8475;DHT22;4274;52.012;8.448;2023-03-03T21:52:17;3.30;99.90
8475;DHT22;4274;52.012;8.448;2023-03-03T21:54:43;3.20;99.90
8475;DHT22;4274;52.012;8.448;2023-03-03T21:57:10;3.20;99.90
8475;DHT22;4274;52.012;8.448;2023-03-03T21:59:36;3.20;99.90
8475;DHT22;4274;52.012;8.448;2023-03-03T22:02:02;3.20;99.90
8475;DHT22;4274;52.012;8.448;2023-03-03T22:04:28;3.20;99.90
8475;DHT22;4274;52.012;8.448;2023-03-03T22:06:54;3.20;99.90
8475;DHT22;4274;52.012;8.448;2023-03-03T22:09:20;3.20;99.90
8475;DHT22;4274;52.012;8.448;2023-03-03T22:11:46;3.20;99.90
8475;DHT22;4274;52.012;8.448;2023-03-03T22:14:11;3.20;99.90
8475;DHT22;4274;52.012;8.448;2023-03-03T22:16:37;3.20;99.90
8475;DHT22;4274;52.012;8.448;2023-03-03T22:19:03;3.20;99.90
8475;DHT22;4274;52.012;8.448;2023-03-03T22:21:29;3.20;99.90
8475;DHT22;4274;52.012;8.448;2023-03-03T22:23:55;3.20;99.90
8475;DHT22;4274;52.012;8.448;2023-03-03T22:26:21;3.20;99.90
8475;DHT22;4274;52.012;8.448;2023-03-03T22:28:48;3.20;99.90
8475;DHT22;4274;52.012;8.448;2023-03-03T22:31:14;3.20;99.90
8475;DHT22;4274;52.012;8.448;2023-03-03T22:33:40;3.20;99.90
8475;DHT22;4274;52.012;8.448;2023-03-03T22:36:06;3.30;99.90
8475;DHT22;4274;52.012;8.448;2023-03-03T22:38:32;3.20;99.90
8475;DHT22;4274;52.012;8.448;2023-03-03T22:40:58;3.20;99.90
8475;DHT22;4274;52.012;8.448;2023-03-03T22:43:24;3.30;99.90
8475;DHT22;4274;52.012;8.448;2023-03-03T22:45:50;3.30;99.90
8475;DHT22;4274;52.012;8.448;2023-03-03T22:48:16;3.30;99.90
8475;DHT22;4274;52.012;8.448;2023-03-03T22:50:41;3.30;99.90
8475;DHT22;4274;52.012;8.448;2023-03-03T22:53:09;3.30;99.90
8475;DHT22;4274;52.012;8.448;2023-03-03T22:55:35;3.40;99.90
8475;DHT22;4274;52.012;8.448;2023-03-03T22:58:05;3.40;99.90
8475;DHT22;4274;52.012;8.448;2023-03-03T23:00:31;3.40;99.90